sensor_id;sensor_type;location;lat;lon;timestamp;P1;durP1;ratioP1;P2;durP2;ratioP2
33160;SDS011;19522;45.656;11.302;2022-11-04T00:01:14;34.78;;;22.50;;
33160;SDS011;19522;45.656;11.302;2022-11-04T00:03:39;30.77;;;22.13;;
33160;SDS011;19522;45.656;11.302;2022-11-04T00:06:05;34.50;;;24.58;;
33160;SDS011;19522;45.656;11.302;2022-11-04T00:08:31;35.42;;;23.63;;
33160;SDS011;19522;45.656;11.302;2022-11-04T00:10:57;31.95;;;22.77;;
33160;SDS011;19522;45.656;11.302;2022-11-04T00:13:43;32.15;;;21.45;;
33160;SDS011;19522;45.656;11.302;2022-11-04T00:16:12;28.30;;;17.98;;
33160;SDS011;19522;45.656;11.302;2022-11-04T00:19:00;22.38;;;15.88;;
33160;SDS011;19522;45.656;11.302;2022-11-04T00:21:27;20.30;;;14.00;;
33160;SDS011;19522;45.656;11.302;2022-11-04T00:24:12;20.92;;;13.82;;
33160;SDS011;19522;45.656;11.302;2022-11-04T00:29:41;15.52;;;9.90;;
33160;SDS011;19522;45.656;11.302;2022-11-04T00:32:06;15.23;;;9.77;;
33160;SDS011;19522;45.656;11.302;2022-11-04T00:34:50;13.37;;;9.23;;
33160;SDS011;19522;45.656;11.302;2022-11-04T00:37:16;11.73;;;8.45;;
33160;SDS011;19522;45.656;11.302;2022-11-04T00:39:42;11.93;;;8.07;;
33160;SDS011;19522;45.656;11.302;2022-11-04T00:42:07;13.85;;;7.97;;
33160;SDS011;19522;45.656;11.302;2022-11-04T00:44:33;9.88;;;7.05;;
33160;SDS011;19522;45.656;11.302;2022-11-04T00:46:58;9.68;;;6.88;;
33160;SDS011;19522;45.656;11.302;2022-11-04T00:49:24;8.75;;;6.10;;
33160;SDS011;19522;45.656;11.302;2022-11-04T00:51:49;7.32;;;4.80;;
33160;SDS011;19522;45.656;11.302;2022-11-04T00:54:15;7.82;;;4.57;;
33160;SDS011;19522;45.656;11.302;2022-11-04T00:56:40;8.80;;;5.03;;
33160;SDS011;19522;45.656;11.302;2022-11-04T00:59:06;8.90;;;4.88;;
33160;SDS011;19522;45.656;11.302;2022-11-04T01:01:32;8.20;;;4.78;;
33160;SDS011;19522;45.656;11.302;2022-11-04T01:03:57;5.88;;;3.65;;
33160;SDS011;19522;45.656;11.302;2022-11-04T01:06:24;5.80;;;4.13;;
33160;SDS011;19522;45.656;11.302;2022-11-04T01:08:57;6.00;;;3.90;;
33160;SDS011;19522;45.656;11.302;2022-11-04T01:11:28;5.53;;;3.20;;
33160;SDS011;19522;45.656;11.302;2022-11-04T01:13:55;4.90;;;3.35;;
33160;SDS011;19522;45.656;11.302;2022-11-04T01:16:21;5.65;;;3.13;;
33160;SDS011;19522;45.656;11.302;2022-11-04T01:18:48;6.05;;;3.17;;
33160;SDS011;19522;45.656;11.302;2022-11-04T01:21:14;5.45;;;3.55;;
33160;SDS011;19522;45.656;11.302;2022-11-04T01:23:41;4.32;;;2.20;;
33160;SDS011;19522;45.656;11.302;2022-11-04T01:26:18;3.38;;;2.35;;
33160;SDS011;19522;45.656;11.302;2022-11-04T01:28:45;4.18;;;1.92;;
33160;SDS011;19522;45.656;11.302;2022-11-04T01:31:15;4.35;;;2.20;;
33160;SDS011;19522;45.656;11.302;2022-11-04T01:36:11;4.22;;;2.22;;
33160;SDS011;19522;45.656;11.302;2022-11-04T01:38:37;4.28;;;2.50;;
33160;SDS011;19522;45.656;11.302;2022-11-04T01:41:03;5.05;;;2.70;;
33160;SDS011;19522;45.656;11.302;2022-11-04T01:43:43;5.20;;;2.60;;
33160;SDS011;19522;45.656;11.302;2022-11-04T01:46:27;3.35;;;2.20;;
33160;SDS011;19522;45.656;11.302;2022-11-04T01:49:10;4.38;;;2.53;;
33160;SDS011;19522;45.656;11.302;2022-11-04T01:51:55;3.88;;;2.10;;
33160;SDS011;19522;45.656;11.302;2022-11-04T01:54:25;3.63;;;2.20;;
33160;SDS011;19522;45.656;11.302;2022-11-04T01:56:55;4.50;;;2.47;;
33160;SDS011;19522;45.656;11.302;2022-11-04T01:59:25;4.35;;;2.30;;
33160;SDS011;19522;45.656;11.302;2022-11-04T02:01:54;5.20;;;2.30;;
33160;SDS011;19522;45.656;11.302;2022-11-04T02:04:20;4.72;;;2.15;;
33160;SDS011;19522;45.656;11.302;2022-11-04T02:07:04;5.10;;;2.42;;
33160;SDS011;19522;45.656;11.302;2022-11-04T02:09:35;4.03;;;2.33;;
33160;SDS011;19522;45.656;11.302;2022-11-04T02:12:03;3.47;;;2.13;;
33160;SDS011;19522;45.656;11.302;2022-11-04T02:14:47;3.03;;;1.63;;
33160;SDS011;19522;45.656;11.302;2022-11-04T02:25:07;3.65;;;1.90;;
33160;SDS011;19522;45.656;11.302;2022-11-04T02:27:47;3.95;;;1.90;;
33160;SDS011;19522;45.656;11.302;2022-11-04T02:30:30;2.30;;;1.50;;
33160;SDS011;19522;45.656;11.302;2022-11-04T02:33:12;2.83;;;1.80;;
33160;SDS011;19522;45.656;11.302;2022-11-04T02:38:47;3.05;;;1.25;;
33160;SDS011;19522;45.656;11.302;2022-11-04T02:41:38;1.85;;;1.00;;
33160;SDS011;19522;45.656;11.302;2022-11-04T02:44:15;1.85;;;1.13;;
33160;SDS011;19522;45.656;11.302;2022-11-04T02:46:50;1.77;;;0.95;;
33160;SDS011;19522;45.656;11.302;2022-11-04T02:49:28;1.63;;;1.00;;
33160;SDS011;19522;45.656;11.302;2022-11-04T02:52:13;1.60;;;1.20;;
33160;SDS011;19522;45.656;11.302;2022-11-04T02:57:23;1.65;;;1.17;;
33160;SDS011;19522;45.656;11.302;2022-11-04T03:00:04;4.43;;;1.33;;
33160;SDS011;19522;45.656;11.302;2022-11-04T03:02:33;3.08;;;1.20;;
33160;SDS011;19522;45.656;11.302;2022-11-04T03:05:33;2.05;;;1.17;;
33160;SDS011;19522;45.656;11.302;2022-11-04T03:07:59;1.88;;;1.10;;
33160;SDS011;19522;45.656;11.302;2022-11-04T03:10:47;2.45;;;0.90;;
33160;SDS011;19522;45.656;11.302;2022-11-04T03:13:28;2.70;;;1.17;;
33160;SDS011;19522;45.656;11.302;2022-11-04T03:16:01;1.33;;;0.80;;
33160;SDS011;19522;45.656;11.302;2022-11-04T03:21:11;2.28;;;0.88;;
33160;SDS011;19522;45.656;11.302;2022-11-04T03:23:39;1.63;;;0.98;;
33160;SDS011;19522;45.656;11.302;2022-11-04T03:26:48;1.70;;;0.98;;
33160;SDS011;19522;45.656;11.302;2022-11-04T03:29:22;1.25;;;0.80;;
33160;SDS011;19522;45.656;11.302;2022-11-04T03:34:38;0.98;;;0.60;;
33160;SDS011;19522;45.656;11.302;2022-11-04T03:37:03;2.03;;;1.25;;
33160;SDS011;19522;45.656;11.302;2022-11-04T03:39:29;1.23;;;0.77;;
33160;SDS011;19522;45.656;11.302;2022-11-04T03:41:59;1.35;;;0.85;;
33160;SDS011;19522;45.656;11.302;2022-11-04T03:44:45;2.65;;;0.68;;
33160;SDS011;19522;45.656;11.302;2022-11-04T03:47:13;1.77;;;0.70;;
33160;SDS011;19522;45.656;11.302;2022-11-04T03:49:39;3.78;;;0.80;;
33160;SDS011;19522;45.656;11.302;2022-11-04T03:52:04;2.40;;;1.05;;
33160;SDS011;19522;45.656;11.302;2022-11-04T03:54:30;1.55;;;0.80;;
33160;SDS011;19522;45.656;11.302;2022-11-04T04:00:07;1.20;;;0.60;;
33160;SDS011;19522;45.656;11.302;2022-11-04T04:05:08;1.02;;;0.70;;
33160;SDS011;19522;45.656;11.302;2022-11-04T04:07:47;1.65;;;0.80;;
33160;SDS011;19522;45.656;11.302;2022-11-04T04:10:25;1.35;;;0.70;;
33160;SDS011;19522;45.656;11.302;2022-11-04T04:13:06;1.33;;;0.80;;
33160;SDS011;19522;45.656;11.302;2022-11-04T04:15:48;2.15;;;0.65;;
33160;SDS011;19522;45.656;11.302;2022-11-04T04:18:32;1.30;;;0.70;;
33160;SDS011;19522;45.656;11.302;2022-11-04T04:21:05;3.42;;;0.80;;
33160;SDS011;19522;45.656;11.302;2022-11-04T04:23:33;1.48;;;0.80;;
33160;SDS011;19522;45.656;11.302;2022-11-04T04:26:20;2.15;;;0.70;;
33160;SDS011;19522;45.656;11.302;2022-11-04T04:29:07;1.20;;;0.70;;
33160;SDS011;19522;45.656;11.302;2022-11-04T04:31:35;1.08;;;0.63;;
33160;SDS011;19522;45.656;11.302;2022-11-04T04:34:15;1.13;;;0.70;;
33160;SDS011;19522;45.656;11.302;2022-11-04T04:37:25;1.58;;;0.77;;
33160;SDS011;19522;45.656;11.302;2022-11-04T04:39:45;1.40;;;0.65;;
33160;SDS011;19522;45.656;11.302;2022-11-04T04:42:37;0.82;;;0.50;;
33160;SDS011;19522;45.656;11.302;2022-11-04T04:45:22;2.17;;;0.73;;
33160;SDS011;19522;45.656;11.302;2022-11-04T04:47:52;1.85;;;0.52;;
33160;SDS011;19522;45.656;11.302;2022-11-04T04:50:18;0.75;;;0.50;;
33160;SDS011;19522;45.656;11.302;2022-11-04T04:52:49;0.95;;;0.60;;
33160;SDS011;19522;45.656;11.302;2022-11-04T04:55:17;1.00;;;0.77;;
33160;SDS011;19522;45.656;11.302;2022-11-04T04:57:43;1.42;;;0.70;;
33160;SDS011;19522;45.656;11.302;2022-11-04T05:00:10;1.52;;;0.73;;
33160;SDS011;19522;45.656;11.302;2022-11-04T05:02:38;3.25;;;0.70;;
33160;SDS011;19522;45.656;11.302;2022-11-04T05:05:04;2.20;;;0.90;;
33160;SDS011;19522;45.656;11.302;2022-11-04T05:07:29;4.05;;;0.70;;
33160;SDS011;19522;45.656;11.302;2022-11-04T05:09:55;3.25;;;0.70;;
33160;SDS011;19522;45.656;11.302;2022-11-04T05:12:20;1.90;;;0.90;;
33160;SDS011;19522;45.656;11.302;2022-11-04T05:14:46;0.93;;;0.52;;
33160;SDS011;19522;45.656;11.302;2022-11-04T05:17:11;1.27;;;0.80;;
33160;SDS011;19522;45.656;11.302;2022-11-04T05:19:37;1.42;;;0.75;;
33160;SDS011;19522;45.656;11.302;2022-11-04T05:22:03;2.58;;;0.80;;
33160;SDS011;19522;45.656;11.302;2022-11-04T05:24:28;1.23;;;0.82;;
33160;SDS011;19522;45.656;11.302;2022-11-04T05:26:54;2.25;;;0.77;;
33160;SDS011;19522;45.656;11.302;2022-11-04T05:29:19;1.02;;;0.70;;
33160;SDS011;19522;45.656;11.302;2022-11-04T05:31:45;2.90;;;0.82;;
33160;SDS011;19522;45.656;11.302;2022-11-04T05:34:10;2.38;;;0.80;;
33160;SDS011;19522;45.656;11.302;2022-11-04T05:36:36;1.67;;;0.80;;
33160;SDS011;19522;45.656;11.302;2022-11-04T05:39:02;4.05;;;1.38;;
33160;SDS011;19522;45.656;11.302;2022-11-04T05:41:28;1.95;;;1.20;;
33160;SDS011;19522;45.656;11.302;2022-11-04T05:43:58;2.58;;;1.10;;
33160;SDS011;19522;45.656;11.302;2022-11-04T05:46:28;1.93;;;0.73;;
33160;SDS011;19522;45.656;11.302;2022-11-04T05:48:54;2.20;;;1.02;;
33160;SDS011;19522;45.656;11.302;2022-11-04T05:51:21;2.40;;;0.93;;
33160;SDS011;19522;45.656;11.302;2022-11-04T05:53:48;1.20;;;0.88;;
33160;SDS011;19522;45.656;11.302;2022-11-04T05:56:14;1.83;;;0.82;;
33160;SDS011;19522;45.656;11.302;2022-11-04T05:58:40;3.60;;;1.00;;
33160;SDS011;19522;45.656;11.302;2022-11-04T06:01:13;2.38;;;1.23;;
33160;SDS011;19522;45.656;11.302;2022-11-04T06:03:48;1.15;;;0.63;;
33160;SDS011;19522;45.656;11.302;2022-11-04T06:06:15;1.50;;;0.70;;
33160;SDS011;19522;45.656;11.302;2022-11-04T06:08:40;1.02;;;0.70;;
33160;SDS011;19522;45.656;11.302;2022-11-04T06:11:06;1.45;;;0.77;;
33160;SDS011;19522;45.656;11.302;2022-11-04T06:13:31;2.08;;;1.02;;
33160;SDS011;19522;45.656;11.302;2022-11-04T06:15:57;0.98;;;0.77;;
33160;SDS011;19522;45.656;11.302;2022-11-04T06:18:22;1.83;;;1.10;;
33160;SDS011;19522;45.656;11.302;2022-11-04T06:20:48;1.40;;;1.00;;
33160;SDS011;19522;45.656;11.302;2022-11-04T06:23:13;2.75;;;1.02;;
33160;SDS011;19522;45.656;11.302;2022-11-04T06:25:39;1.42;;;0.95;;
33160;SDS011;19522;45.656;11.302;2022-11-04T06:28:04;2.50;;;0.98;;
33160;SDS011;19522;45.656;11.302;2022-11-04T06:30:30;1.42;;;1.00;;
33160;SDS011;19522;45.656;11.302;2022-11-04T06:32:55;2.00;;;1.38;;
33160;SDS011;19522;45.656;11.302;2022-11-04T06:35:21;2.58;;;1.50;;
33160;SDS011;19522;45.656;11.302;2022-11-04T06:37:46;2.53;;;1.75;;
33160;SDS011;19522;45.656;11.302;2022-11-04T06:40:12;3.88;;;1.80;;
33160;SDS011;19522;45.656;11.302;2022-11-04T06:42:37;5.00;;;2.10;;
33160;SDS011;19522;45.656;11.302;2022-11-04T06:45:03;2.28;;;1.48;;
33160;SDS011;19522;45.656;11.302;2022-11-04T06:47:29;3.25;;;1.50;;
33160;SDS011;19522;45.656;11.302;2022-11-04T06:49:54;3.83;;;2.70;;
33160;SDS011;19522;45.656;11.302;2022-11-04T06:52:23;3.22;;;2.13;;
33160;SDS011;19522;45.656;11.302;2022-11-04T06:54:48;4.97;;;2.50;;
33160;SDS011;19522;45.656;11.302;2022-11-04T06:57:14;4.85;;;2.80;;
33160;SDS011;19522;45.656;11.302;2022-11-04T06:59:40;4.15;;;2.42;;
33160;SDS011;19522;45.656;11.302;2022-11-04T07:02:05;3.95;;;2.20;;
33160;SDS011;19522;45.656;11.302;2022-11-04T07:04:31;5.30;;;2.65;;
33160;SDS011;19522;45.656;11.302;2022-11-04T07:07:00;6.25;;;2.70;;
33160;SDS011;19522;45.656;11.302;2022-11-04T07:09:25;4.28;;;2.58;;
33160;SDS011;19522;45.656;11.302;2022-11-04T07:11:51;4.28;;;2.70;;
33160;SDS011;19522;45.656;11.302;2022-11-04T07:14:22;5.03;;;3.25;;
33160;SDS011;19522;45.656;11.302;2022-11-04T07:16:50;4.30;;;3.67;;
33160;SDS011;19522;45.656;11.302;2022-11-04T07:19:16;4.50;;;3.30;;
33160;SDS011;19522;45.656;11.302;2022-11-04T07:21:42;6.15;;;4.32;;
33160;SDS011;19522;45.656;11.302;2022-11-04T07:24:08;6.18;;;5.03;;
33160;SDS011;19522;45.656;11.302;2022-11-04T07:26:34;8.10;;;4.60;;
33160;SDS011;19522;45.656;11.302;2022-11-04T07:29:04;7.32;;;5.70;;
33160;SDS011;19522;45.656;11.302;2022-11-04T07:31:30;8.07;;;5.30;;
33160;SDS011;19522;45.656;11.302;2022-11-04T07:33:56;7.50;;;5.20;;
33160;SDS011;19522;45.656;11.302;2022-11-04T07:36:24;11.18;;;6.18;;
33160;SDS011;19522;45.656;11.302;2022-11-04T07:38:53;11.25;;;5.70;;
33160;SDS011;19522;45.656;11.302;2022-11-04T07:41:19;9.13;;;5.95;;
33160;SDS011;19522;45.656;11.302;2022-11-04T07:43:51;9.18;;;6.28;;
33160;SDS011;19522;45.656;11.302;2022-11-04T07:46:18;11.63;;;7.78;;
33160;SDS011;19522;45.656;11.302;2022-11-04T07:48:44;11.20;;;6.60;;
33160;SDS011;19522;45.656;11.302;2022-11-04T07:51:11;14.10;;;8.63;;
33160;SDS011;19522;45.656;11.302;2022-11-04T07:53:40;11.88;;;8.02;;
33160;SDS011;19522;45.656;11.302;2022-11-04T07:56:07;12.10;;;9.10;;
33160;SDS011;19522;45.656;11.302;2022-11-04T07:58:38;11.48;;;8.18;;
33160;SDS011;19522;45.656;11.302;2022-11-04T08:01:06;10.95;;;6.68;;
33160;SDS011;19522;45.656;11.302;2022-11-04T08:03:34;10.40;;;6.97;;
33160;SDS011;19522;45.656;11.302;2022-11-04T08:06:01;4.85;;;3.92;;
33160;SDS011;19522;45.656;11.302;2022-11-04T08:08:28;6.50;;;3.53;;
33160;SDS011;19522;45.656;11.302;2022-11-04T08:10:58;5.43;;;1.38;;
33160;SDS011;19522;45.656;11.302;2022-11-04T08:13:28;1.58;;;0.77;;
33160;SDS011;19522;45.656;11.302;2022-11-04T08:15:55;0.98;;;0.60;;
33160;SDS011;19522;45.656;11.302;2022-11-04T08:18:24;0.75;;;0.40;;
33160;SDS011;19522;45.656;11.302;2022-11-04T08:20:50;1.77;;;0.45;;
33160;SDS011;19522;45.656;11.302;2022-11-04T08:23:16;1.55;;;1.02;;
33160;SDS011;19522;45.656;11.302;2022-11-04T08:25:42;0.50;;;0.10;;
33160;SDS011;19522;45.656;11.302;2022-11-04T08:28:09;0.45;;;0.30;;
33160;SDS011;19522;45.656;11.302;2022-11-04T08:30:41;3.95;;;0.50;;
33160;SDS011;19522;45.656;11.302;2022-11-04T08:33:42;0.70;;;0.35;;
33160;SDS011;19522;45.656;11.302;2022-11-04T08:36:16;0.75;;;0.40;;
33160;SDS011;19522;45.656;11.302;2022-11-04T08:38:46;0.55;;;0.30;;
33160;SDS011;19522;45.656;11.302;2022-11-04T08:41:13;0.20;;;0.20;;
33160;SDS011;19522;45.656;11.302;2022-11-04T08:43:40;1.90;;;0.50;;
33160;SDS011;19522;45.656;11.302;2022-11-04T08:46:07;1.92;;;0.40;;
33160;SDS011;19522;45.656;11.302;2022-11-04T08:48:35;1.65;;;0.60;;
33160;SDS011;19522;45.656;11.302;2022-11-04T08:51:02;2.40;;;0.70;;
33160;SDS011;19522;45.656;11.302;2022-11-04T08:53:28;3.15;;;0.73;;
33160;SDS011;19522;45.656;11.302;2022-11-04T08:55:54;3.20;;;0.80;;
33160;SDS011;19522;45.656;11.302;2022-11-04T08:58:20;3.50;;;0.80;;
33160;SDS011;19522;45.656;11.302;2022-11-04T09:00:47;2.28;;;0.80;;
33160;SDS011;19522;45.656;11.302;2022-11-04T09:03:13;2.10;;;1.00;;
33160;SDS011;19522;45.656;11.302;2022-11-04T09:05:43;0.80;;;0.50;;
33160;SDS011;19522;45.656;11.302;2022-11-04T09:08:11;21.63;;;12.18;;
33160;SDS011;19522;45.656;11.302;2022-11-04T09:10:41;6.10;;;2.80;;
33160;SDS011;19522;45.656;11.302;2022-11-04T09:13:07;0.77;;;0.35;;
33160;SDS011;19522;45.656;11.302;2022-11-04T09:15:35;0.25;;;0.20;;
33160;SDS011;19522;45.656;11.302;2022-11-04T09:18:01;0.30;;;0.20;;
33160;SDS011;19522;45.656;11.302;2022-11-04T09:20:27;0.50;;;0.25;;
33160;SDS011;19522;45.656;11.302;2022-11-04T09:22:56;0.75;;;0.22;;
33160;SDS011;19522;45.656;11.302;2022-11-04T09:25:22;1.13;;;0.40;;
33160;SDS011;19522;45.656;11.302;2022-11-04T09:27:47;0.63;;;0.40;;
33160;SDS011;19522;45.656;11.302;2022-11-04T09:30:13;0.35;;;0.25;;
33160;SDS011;19522;45.656;11.302;2022-11-04T09:32:39;1.10;;;0.40;;
33160;SDS011;19522;45.656;11.302;2022-11-04T09:35:04;0.60;;;0.22;;
33160;SDS011;19522;45.656;11.302;2022-11-04T09:37:30;0.47;;;0.20;;
33160;SDS011;19522;45.656;11.302;2022-11-04T09:39:55;0.20;;;0.17;;
33160;SDS011;19522;45.656;11.302;2022-11-04T09:42:28;0.35;;;0.30;;
33160;SDS011;19522;45.656;11.302;2022-11-04T09:47:26;0.28;;;0.20;;
33160;SDS011;19522;45.656;11.302;2022-11-04T09:49:57;0.70;;;0.30;;
33160;SDS011;19522;45.656;11.302;2022-11-04T09:52:25;0.20;;;0.10;;
33160;SDS011;19522;45.656;11.302;2022-11-04T09:54:55;0.57;;;0.20;;
33160;SDS011;19522;45.656;11.302;2022-11-04T09:57:23;0.90;;;0.20;;
33160;SDS011;19522;45.656;11.302;2022-11-04T09:59:49;0.10;;;0.00;;
33160;SDS011;19522;45.656;11.302;2022-11-04T10:19:14;0.10;;;0.10;;
33160;SDS011;19522;45.656;11.302;2022-11-04T10:25:42;1.00;;;0.20;;
33160;SDS011;19522;45.656;11.302;2022-11-04T10:27:41;0.43;;;0.13;;
33160;SDS011;19522;45.656;11.302;2022-11-04T10:35:39;0.28;;;0.20;;
33160;SDS011;19522;45.656;11.302;2022-11-04T10:38:10;0.52;;;0.15;;
33160;SDS011;19522;45.656;11.302;2022-11-04T10:40:41;0.10;;;0.10;;
33160;SDS011;19522;45.656;11.302;2022-11-04T10:43:14;0.30;;;0.20;;
33160;SDS011;19522;45.656;11.302;2022-11-04T10:51:50;0.13;;;0.00;;
33160;SDS011;19522;45.656;11.302;2022-11-04T10:54:23;1.77;;;0.20;;
33160;SDS011;19522;45.656;11.302;2022-11-04T10:56:52;0.40;;;0.20;;
33160;SDS011;19522;45.656;11.302;2022-11-04T11:01:49;0.52;;;0.20;;
33160;SDS011;19522;45.656;11.302;2022-11-04T11:04:27;1.60;;;0.15;;
33160;SDS011;19522;45.656;11.302;2022-11-04T11:06:53;0.10;;;0.10;;
33160;SDS011;19522;45.656;11.302;2022-11-04T11:09:21;0.17;;;0.10;;
33160;SDS011;19522;45.656;11.302;2022-11-04T11:11:54;0.00;;;0.00;;
33160;SDS011;19522;45.656;11.302;2022-11-04T11:16:56;0.10;;;0.10;;
33160;SDS011;19522;45.656;11.302;2022-11-04T11:19:48;0.22;;;0.10;;
33160;SDS011;19522;45.656;11.302;2022-11-04T11:30:25;0.35;;;0.10;;
33160;SDS011;19522;45.656;11.302;2022-11-04T11:33:39;0.55;;;0.20;;
33160;SDS011;19522;45.656;11.302;2022-11-04T11:35:47;0.10;;;0.10;;
33160;SDS011;19522;45.656;11.302;2022-11-04T11:38:23;0.10;;;0.10;;
33160;SDS011;19522;45.656;11.302;2022-11-04T11:40:52;1.10;;;0.20;;
33160;SDS011;19522;45.656;11.302;2022-11-04T11:43:30;0.30;;;0.10;;
33160;SDS011;19522;45.656;11.302;2022-11-04T11:45:57;0.00;;;0.00;;
33160;SDS011;19522;45.656;11.302;2022-11-04T11:51:02;0.20;;;0.10;;
33160;SDS011;19522;45.656;11.302;2022-11-04T11:53:30;0.52;;;0.20;;
33160;SDS011;19522;45.656;11.302;2022-11-04T11:56:20;0.98;;;0.38;;
33160;SDS011;19522;45.656;11.302;2022-11-04T11:58:58;0.10;;;0.10;;
33160;SDS011;19522;45.656;11.302;2022-11-04T12:04:15;0.20;;;0.10;;
33160;SDS011;19522;45.656;11.302;2022-11-04T12:06:58;0.00;;;0.00;;
33160;SDS011;19522;45.656;11.302;2022-11-04T12:09:41;0.25;;;0.10;;
33160;SDS011;19522;45.656;11.302;2022-11-04T12:15:39;0.57;;;0.00;;
33160;SDS011;19522;45.656;11.302;2022-11-04T12:18:10;0.17;;;0.10;;
33160;SDS011;19522;45.656;11.302;2022-11-04T12:23:52;0.22;;;0.10;;
33160;SDS011;19522;45.656;11.302;2022-11-04T12:37:32;0.57;;;0.20;;
33160;SDS011;19522;45.656;11.302;2022-11-04T12:40:19;0.00;;;0.00;;
33160;SDS011;19522;45.656;11.302;2022-11-04T12:43:23;0.45;;;0.30;;
33160;SDS011;19522;45.656;11.302;2022-11-04T12:45:55;0.50;;;0.10;;
33160;SDS011;19522;45.656;11.302;2022-11-04T12:51:13;0.35;;;0.10;;
33160;SDS011;19522;45.656;11.302;2022-11-04T12:53:55;0.03;;;0.00;;
33160;SDS011;19522;45.656;11.302;2022-11-04T12:56:37;0.00;;;0.00;;
33160;SDS011;19522;45.656;11.302;2022-11-04T13:01:51;0.10;;;0.00;;
33160;SDS011;19522;45.656;11.302;2022-11-04T13:07:11;0.00;;;0.00;;
33160;SDS011;19522;45.656;11.302;2022-11-04T13:09:53;0.10;;;0.10;;
33160;SDS011;19522;45.656;11.302;2022-11-04T13:12:23;0.22;;;0.00;;
33160;SDS011;19522;45.656;11.302;2022-11-04T13:15:12;0.20;;;0.10;;
33160;SDS011;19522;45.656;11.302;2022-11-04T13:17:44;0.20;;;0.10;;
33160;SDS011;19522;45.656;11.302;2022-11-04T13:20:19;0.15;;;0.10;;
33160;SDS011;19522;45.656;11.302;2022-11-04T13:22:50;0.40;;;0.10;;
33160;SDS011;19522;45.656;11.302;2022-11-04T13:25:41;0.05;;;0.00;;
33160;SDS011;19522;45.656;11.302;2022-11-04T13:28:09;0.47;;;0.15;;
33160;SDS011;19522;45.656;11.302;2022-11-04T13:30:49;0.75;;;0.10;;
33160;SDS011;19522;45.656;11.302;2022-11-04T13:33:23;0.20;;;0.03;;
33160;SDS011;19522;45.656;11.302;2022-11-04T13:38:38;0.17;;;0.10;;
33160;SDS011;19522;45.656;11.302;2022-11-04T13:44:00;0.68;;;0.10;;
33160;SDS011;19522;45.656;11.302;2022-11-04T13:46:33;2.08;;;0.25;;
33160;SDS011;19522;45.656;11.302;2022-11-04T13:49:03;0.00;;;0.00;;
33160;SDS011;19522;45.656;11.302;2022-11-04T13:54:23;0.82;;;0.30;;
33160;SDS011;19522;45.656;11.302;2022-11-04T14:00:04;0.45;;;0.10;;
33160;SDS011;19522;45.656;11.302;2022-11-04T14:16:10;0.75;;;0.38;;
33160;SDS011;19522;45.656;11.302;2022-11-04T14:18:55;0.50;;;0.25;;
33160;SDS011;19522;45.656;11.302;2022-11-04T14:21:25;0.77;;;0.40;;
33160;SDS011;19522;45.656;11.302;2022-11-04T14:23:52;0.68;;;0.35;;
33160;SDS011;19522;45.656;11.302;2022-11-04T14:26:43;0.45;;;0.30;;
33160;SDS011;19522;45.656;11.302;2022-11-04T14:29:46;0.10;;;0.10;;
33160;SDS011;19522;45.656;11.302;2022-11-04T14:32:03;0.40;;;0.20;;
33160;SDS011;19522;45.656;11.302;2022-11-04T14:34:36;0.50;;;0.38;;
33160;SDS011;19522;45.656;11.302;2022-11-04T14:37:26;0.10;;;0.10;;
33160;SDS011;19522;45.656;11.302;2022-11-04T14:39:56;0.50;;;0.22;;
33160;SDS011;19522;45.656;11.302;2022-11-04T14:45:32;0.77;;;0.25;;
33160;SDS011;19522;45.656;11.302;2022-11-04T14:48:21;0.60;;;0.32;;
33160;SDS011;19522;45.656;11.302;2022-11-04T14:50:49;0.32;;;0.30;;
33160;SDS011;19522;45.656;11.302;2022-11-04T14:53:32;0.43;;;0.30;;
33160;SDS011;19522;45.656;11.302;2022-11-04T14:56:01;1.17;;;0.60;;
33160;SDS011;19522;45.656;11.302;2022-11-04T14:58:28;1.13;;;0.60;;
33160;SDS011;19522;45.656;11.302;2022-11-04T15:00:54;1.95;;;0.90;;
33160;SDS011;19522;45.656;11.302;2022-11-04T15:03:27;1.60;;;0.40;;
33160;SDS011;19522;45.656;11.302;2022-11-04T15:05:59;0.50;;;0.30;;
33160;SDS011;19522;45.656;11.302;2022-11-04T15:08:34;5.82;;;3.75;;
33160;SDS011;19522;45.656;11.302;2022-11-04T15:11:02;1.52;;;0.63;;
33160;SDS011;19522;45.656;11.302;2022-11-04T15:13:42;1.17;;;0.40;;
33160;SDS011;19522;45.656;11.302;2022-11-04T15:16:16;0.82;;;0.60;;
33160;SDS011;19522;45.656;11.302;2022-11-04T15:18:44;1.48;;;1.00;;
33160;SDS011;19522;45.656;11.302;2022-11-04T15:21:10;1.33;;;0.60;;
33160;SDS011;19522;45.656;11.302;2022-11-04T15:23:41;3.60;;;0.90;;
33160;SDS011;19522;45.656;11.302;2022-11-04T15:26:42;0.88;;;0.50;;
33160;SDS011;19522;45.656;11.302;2022-11-04T15:29:06;0.70;;;0.40;;
33160;SDS011;19522;45.656;11.302;2022-11-04T15:31:34;0.70;;;0.52;;
33160;SDS011;19522;45.656;11.302;2022-11-04T15:34:02;0.95;;;0.40;;
33160;SDS011;19522;45.656;11.302;2022-11-04T15:36:31;1.10;;;0.50;;
33160;SDS011;19522;45.656;11.302;2022-11-04T15:39:09;1.95;;;0.65;;
33160;SDS011;19522;45.656;11.302;2022-11-04T15:41:39;1.15;;;0.60;;
33160;SDS011;19522;45.656;11.302;2022-11-04T15:44:25;6.97;;;2.75;;
33160;SDS011;19522;45.656;11.302;2022-11-04T15:46:58;1.55;;;1.02;;
33160;SDS011;19522;45.656;11.302;2022-11-04T15:49:29;7.75;;;2.22;;
33160;SDS011;19522;45.656;11.302;2022-11-04T15:51:59;2.38;;;1.60;;
33160;SDS011;19522;45.656;11.302;2022-11-04T15:54:40;0.95;;;0.63;;
33160;SDS011;19522;45.656;11.302;2022-11-04T15:57:12;0.47;;;0.28;;
33160;SDS011;19522;45.656;11.302;2022-11-04T15:59:44;0.90;;;0.50;;
33160;SDS011;19522;45.656;11.302;2022-11-04T16:02:50;0.90;;;0.50;;
33160;SDS011;19522;45.656;11.302;2022-11-04T16:05:27;2.13;;;1.00;;
33160;SDS011;19522;45.656;11.302;2022-11-04T16:08:12;2.92;;;2.10;;
33160;SDS011;19522;45.656;11.302;2022-11-04T16:10:43;3.60;;;1.88;;
33160;SDS011;19522;45.656;11.302;2022-11-04T16:16:43;3.00;;;1.70;;
33160;SDS011;19522;45.656;11.302;2022-11-04T16:18:53;1.58;;;0.85;;
33160;SDS011;19522;45.656;11.302;2022-11-04T16:21:27;2.35;;;1.10;;
33160;SDS011;19522;45.656;11.302;2022-11-04T16:24:08;4.13;;;3.22;;
33160;SDS011;19522;45.656;11.302;2022-11-04T16:26:53;3.25;;;1.50;;
33160;SDS011;19522;45.656;11.302;2022-11-04T16:29:22;2.03;;;1.20;;
33160;SDS011;19522;45.656;11.302;2022-11-04T16:34:52;7.45;;;4.53;;
33160;SDS011;19522;45.656;11.302;2022-11-04T16:37:21;2.25;;;1.20;;
33160;SDS011;19522;45.656;11.302;2022-11-04T16:39:47;3.28;;;1.80;;
33160;SDS011;19522;45.656;11.302;2022-11-04T16:42:15;2.53;;;1.50;;
33160;SDS011;19522;45.656;11.302;2022-11-04T16:44:48;3.83;;;2.08;;
33160;SDS011;19522;45.656;11.302;2022-11-04T16:47:16;3.78;;;1.55;;
33160;SDS011;19522;45.656;11.302;2022-11-04T16:49:43;2.50;;;1.65;;
33160;SDS011;19522;45.656;11.302;2022-11-04T16:52:11;3.53;;;2.17;;
33160;SDS011;19522;45.656;11.302;2022-11-04T16:54:39;2.88;;;1.92;;
33160;SDS011;19522;45.656;11.302;2022-11-04T16:57:05;6.82;;;2.30;;
33160;SDS011;19522;45.656;11.302;2022-11-04T16:59:35;3.00;;;2.03;;
33160;SDS011;19522;45.656;11.302;2022-11-04T17:02:07;4.40;;;1.67;;
33160;SDS011;19522;45.656;11.302;2022-11-04T17:04:42;2.50;;;1.83;;
33160;SDS011;19522;45.656;11.302;2022-11-04T17:07:10;3.40;;;2.00;;
33160;SDS011;19522;45.656;11.302;2022-11-04T17:09:35;4.88;;;3.05;;
33160;SDS011;19522;45.656;11.302;2022-11-04T17:12:01;3.60;;;2.50;;
33160;SDS011;19522;45.656;11.302;2022-11-04T17:14:26;3.92;;;2.03;;
33160;SDS011;19522;45.656;11.302;2022-11-04T17:16:52;3.78;;;2.50;;
33160;SDS011;19522;45.656;11.302;2022-11-04T17:19:17;3.65;;;2.40;;
33160;SDS011;19522;45.656;11.302;2022-11-04T17:21:43;3.55;;;1.95;;